sensor_id;sensor_type;location;lat;lon;timestamp;pressure;altitude;pressure_sealevel;temperature;humidity
75401;BME280;63974;47.538;18.972;2023-04-25T00:01:44;99293.59;;;10.55;87.98
75401;BME280;63974;47.538;18.972;2023-04-25T00:04:48;99287.81;;;10.53;87.19
75401;BME280;63974;47.538;18.972;2023-04-25T00:07:51;99286.78;;;10.48;87.87
75401;BME280;63974;47.538;18.972;2023-04-25T00:10:54;99294.31;;;10.43;87.40
75401;BME280;63974;47.538;18.972;2023-04-25T00:13:57;99292.88;;;10.34;87.61
75401;BME280;63974;47.538;18.972;2023-04-25T00:17:02;99283.72;;;10.38;87.15
75401;BME280;63974;47.538;18.972;2023-04-25T00:20:09;99296.72;;;10.38;88.07
75401;BME280;63974;47.538;18.972;2023-04-25T00:23:16;99283.13;;;10.36;87.95
75401;BME280;63974;47.538;18.972;2023-04-25T00:26:20;99287.91;;;10.32;87.76
75401;BME280;63974;47.538;18.972;2023-04-25T00:29:23;99292.09;;;10.33;87.10
75401;BME280;63974;47.538;18.972;2023-04-25T00:32:26;99293.25;;;10.31;87.58
75401;BME280;63974;47.538;18.972;2023-04-25T00:35:29;99301.81;;;10.25;87.46
75401;BME280;63974;47.538;18.972;2023-04-25T00:38:32;99292.44;;;10.24;87.40
75401;BME280;63974;47.538;18.972;2023-04-25T00:41:35;99289.81;;;10.17;87.02
75401;BME280;63974;47.538;18.972;2023-04-25T00:44:39;99300.19;;;10.17;87.59
75401;BME280;63974;47.538;18.972;2023-04-25T00:47:42;99299.16;;;10.12;87.46
75401;BME280;63974;47.538;18.972;2023-04-25T00:50:52;99303.94;;;10.15;87.93
75401;BME280;63974;47.538;18.972;2023-04-25T00:53:56;99302.75;;;10.11;88.47
75401;BME280;63974;47.538;18.972;2023-04-25T00:56:59;99309.28;;;10.07;89.05
75401;BME280;63974;47.538;18.972;2023-04-25T01:00:05;99310.88;;;10.08;90.00
75401;BME280;63974;47.538;18.972;2023-04-25T01:03:09;99300.81;;;9.98;89.94
75401;BME280;63974;47.538;18.972;2023-04-25T01:06:12;99317.97;;;9.99;90.05
75401;BME280;63974;47.538;18.972;2023-04-25T01:09:15;99306.38;;;9.95;90.01
75401;BME280;63974;47.538;18.972;2023-04-25T01:12:19;99312.00;;;9.99;89.80
75401;BME280;63974;47.538;18.972;2023-04-25T01:15:22;99311.56;;;9.95;89.30
75401;BME280;63974;47.538;18.972;2023-04-25T01:18:25;99313.13;;;9.90;89.07
75401;BME280;63974;47.538;18.972;2023-04-25T01:21:28;99315.59;;;9.98;88.64
75401;BME280;63974;47.538;18.972;2023-04-25T01:24:32;99325.13;;;9.97;88.43
75401;BME280;63974;47.538;18.972;2023-04-25T01:27:36;99334.13;;;10.01;87.14
75401;BME280;63974;47.538;18.972;2023-04-25T01:30:41;99336.50;;;9.96;87.40
75401;BME280;63974;47.538;18.972;2023-04-25T01:33:44;99331.06;;;9.91;87.15
75401;BME280;63974;47.538;18.972;2023-04-25T01:36:49;99331.69;;;9.93;87.60
75401;BME280;63974;47.538;18.972;2023-04-25T01:39:52;99333.03;;;9.89;88.01
75401;BME280;63974;47.538;18.972;2023-04-25T01:42:57;99333.25;;;9.88;87.83
75401;BME280;63974;47.538;18.972;2023-04-25T01:46:00;99335.59;;;9.83;88.06
75401;BME280;63974;47.538;18.972;2023-04-25T01:49:03;99327.41;;;9.79;87.89
75401;BME280;63974;47.538;18.972;2023-04-25T01:52:07;99329.19;;;9.79;87.77
75401;BME280;63974;47.538;18.972;2023-04-25T01:55:11;99338.56;;;9.80;86.52
75401;BME280;63974;47.538;18.972;2023-04-25T01:58:22;99329.34;;;9.77;87.43
75401;BME280;63974;47.538;18.972;2023-04-25T02:01:39;99333.81;;;9.83;86.41
75401;BME280;63974;47.538;18.972;2023-04-25T02:04:56;99341.75;;;9.82;86.78
75401;BME280;63974;47.538;18.972;2023-04-25T02:08:02;99332.19;;;9.82;86.31
75401;BME280;63974;47.538;18.972;2023-04-25T02:11:05;99330.00;;;9.79;85.81
75401;BME280;63974;47.538;18.972;2023-04-25T02:14:15;99325.16;;;9.76;85.34
75401;BME280;63974;47.538;18.972;2023-04-25T02:17:28;99325.22;;;9.83;84.92
75401;BME280;63974;47.538;18.972;2023-04-25T02:20:30;99326.81;;;9.84;83.61
75401;BME280;63974;47.538;18.972;2023-04-25T02:23:34;99321.84;;;9.82;84.22
75401;BME280;63974;47.538;18.972;2023-04-25T02:26:36;99338.56;;;9.80;84.10
75401;BME280;63974;47.538;18.972;2023-04-25T02:29:43;99325.97;;;9.77;84.04
75401;BME280;63974;47.538;18.972;2023-04-25T02:32:46;99321.44;;;9.85;82.85
75401;BME280;63974;47.538;18.972;2023-04-25T02:35:49;99312.63;;;9.80;83.20
75401;BME280;63974;47.538;18.972;2023-04-25T02:38:52;99317.63;;;9.81;83.78
75401;BME280;63974;47.538;18.972;2023-04-25T02:41:55;99318.00;;;9.78;83.19
75401;BME280;63974;47.538;18.972;2023-04-25T02:44:58;99307.22;;;9.75;82.68
75401;BME280;63974;47.538;18.972;2023-04-25T02:48:02;99310.41;;;9.77;82.67
75401;BME280;63974;47.538;18.972;2023-04-25T02:51:07;99316.03;;;9.80;82.42
75401;BME280;63974;47.538;18.972;2023-04-25T02:54:09;99316.66;;;9.82;82.13
75401;BME280;63974;47.538;18.972;2023-04-25T02:57:16;99307.22;;;9.75;81.69
75401;BME280;63974;47.538;18.972;2023-04-25T03:00:19;99319.84;;;9.84;81.06
75401;BME280;63974;47.538;18.972;2023-04-25T03:03:22;99321.28;;;9.87;80.53
75401;BME280;63974;47.538;18.972;2023-04-25T03:06:26;99319.66;;;9.86;80.66
75401;BME280;63974;47.538;18.972;2023-04-25T03:09:29;99317.09;;;9.86;80.33
75401;BME280;63974;47.538;18.972;2023-04-25T03:12:32;99314.66;;;9.84;80.34
75401;BME280;63974;47.538;18.972;2023-04-25T03:15:35;99326.88;;;9.90;80.10
75401;BME280;63974;47.538;18.972;2023-04-25T03:18:38;99322.50;;;9.91;79.34
75401;BME280;63974;47.538;18.972;2023-04-25T03:21:41;99311.69;;;9.87;79.24
75401;BME280;63974;47.538;18.972;2023-04-25T03:24:44;99322.66;;;9.89;78.82
75401;BME280;63974;47.538;18.972;2023-04-25T03:27:48;99326.88;;;9.90;77.97
75401;BME280;63974;47.538;18.972;2023-04-25T03:30:51;99316.31;;;9.92;77.50
75401;BME280;63974;47.538;18.972;2023-04-25T03:33:54;99312.56;;;9.94;77.04
75401;BME280;63974;47.538;18.972;2023-04-25T03:36:59;99323.34;;;9.98;77.09
75401;BME280;63974;47.538;18.972;2023-04-25T03:40:02;99325.31;;;9.96;76.69
75401;BME280;63974;47.538;18.972;2023-04-25T03:43:26;99323.91;;;9.93;76.79
75401;BME280;63974;47.538;18.972;2023-04-25T03:46:34;99332.69;;;9.92;76.02
75401;BME280;63974;47.538;18.972;2023-04-25T03:49:37;99334.41;;;9.85;76.57
75401;BME280;63974;47.538;18.972;2023-04-25T03:52:41;99332.25;;;9.89;76.49
75401;BME280;63974;47.538;18.972;2023-04-25T03:55:44;99338.09;;;9.97;74.90
75401;BME280;63974;47.538;18.972;2023-04-25T03:58:48;99343.47;;;9.96;74.99
75401;BME280;63974;47.538;18.972;2023-04-25T04:01:54;99342.84;;;9.94;75.72
75401;BME280;63974;47.538;18.972;2023-04-25T04:04:57;99334.09;;;9.95;75.06
75401;BME280;63974;47.538;18.972;2023-04-25T04:08:01;99343.84;;;9.93;74.61
75401;BME280;63974;47.538;18.972;2023-04-25T04:11:05;99340.09;;;9.95;75.10
75401;BME280;63974;47.538;18.972;2023-04-25T04:14:09;99343.84;;;9.93;74.62
75401;BME280;63974;47.538;18.972;2023-04-25T04:17:16;99348.84;;;9.94;75.04
75401;BME280;63974;47.538;18.972;2023-04-25T04:20:20;99350.06;;;9.98;75.18
75401;BME280;63974;47.538;18.972;2023-04-25T04:23:23;99351.81;;;9.91;75.08
75401;BME280;63974;47.538;18.972;2023-04-25T04:26:26;99372.19;;;9.94;74.94
75401;BME280;63974;47.538;18.972;2023-04-25T04:29:42;99360.41;;;9.92;75.42
75401;BME280;63974;47.538;18.972;2023-04-25T04:32:58;99355.81;;;9.94;75.29
75401;BME280;63974;47.538;18.972;2023-04-25T04:36:02;99361.81;;;9.94;75.03
75401;BME280;63974;47.538;18.972;2023-04-25T04:39:06;99364.22;;;9.96;74.83
75401;BME280;63974;47.538;18.972;2023-04-25T04:42:17;99362.25;;;9.98;75.32
75401;BME280;63974;47.538;18.972;2023-04-25T04:45:40;99354.09;;;10.01;74.95
75401;BME280;63974;47.538;18.972;2023-04-25T04:49:06;99361.25;;;9.99;75.11
75401;BME280;63974;47.538;18.972;2023-04-25T04:52:18;99364.47;;;10.01;74.90
75401;BME280;63974;47.538;18.972;2023-04-25T04:55:31;99368.31;;;10.05;73.71
75401;BME280;63974;47.538;18.972;2023-04-25T04:58:57;99372.16;;;10.15;73.89
75401;BME280;63974;47.538;18.972;2023-04-25T05:02:17;99372.75;;;10.11;73.23
75401;BME280;63974;47.538;18.972;2023-04-25T05:05:32;99374.59;;;10.17;73.29
75401;BME280;63974;47.538;18.972;2023-04-25T05:08:38;99373.59;;;10.18;73.24
75401;BME280;63974;47.538;18.972;2023-04-25T05:11:53;99384.63;;;10.26;73.21
75401;BME280;63974;47.538;18.972;2023-04-25T05:15:05;99387.09;;;10.34;73.38
75401;BME280;63974;47.538;18.972;2023-04-25T05:18:27;99383.75;;;10.40;73.21
75401;BME280;63974;47.538;18.972;2023-04-25T05:21:44;99389.78;;;10.47;72.02
75401;BME280;63974;47.538;18.972;2023-04-25T05:25:05;99386.63;;;10.52;71.40
75401;BME280;63974;47.538;18.972;2023-04-25T05:28:25;99387.22;;;10.54;71.43
75401;BME280;63974;47.538;18.972;2023-04-25T05:31:48;99395.25;;;10.59;71.58
75401;BME280;63974;47.538;18.972;2023-04-25T05:34:51;99378.88;;;10.58;71.69
75401;BME280;63974;47.538;18.972;2023-04-25T05:38:00;99389.69;;;10.62;71.84
75401;BME280;63974;47.538;18.972;2023-04-25T05:41:24;99401.59;;;10.84;70.97
75401;BME280;63974;47.538;18.972;2023-04-25T05:44:50;99398.44;;;10.95;70.33
75401;BME280;63974;47.538;18.972;2023-04-25T05:48:10;99405.28;;;11.02;70.24
75401;BME280;63974;47.538;18.972;2023-04-25T05:51:25;99411.13;;;11.10;69.41
75401;BME280;63974;47.538;18.972;2023-04-25T05:54:47;99405.53;;;11.13;68.19
75401;BME280;63974;47.538;18.972;2023-04-25T05:57:50;99403.53;;;11.15;68.38
75401;BME280;63974;47.538;18.972;2023-04-25T06:00:53;99404.59;;;11.27;68.15
75401;BME280;63974;47.538;18.972;2023-04-25T06:04:06;99405.41;;;11.28;66.30
75401;BME280;63974;47.538;18.972;2023-04-25T06:07:10;99404.16;;;11.24;66.52
75401;BME280;63974;47.538;18.972;2023-04-25T06:10:13;99413.94;;;11.22;66.68
75401;BME280;63974;47.538;18.972;2023-04-25T06:13:17;99409.97;;;11.19;66.60
75401;BME280;63974;47.538;18.972;2023-04-25T06:16:20;99412.97;;;11.23;68.01
75401;BME280;63974;47.538;18.972;2023-04-25T06:19:24;99412.56;;;11.19;68.17
75401;BME280;63974;47.538;18.972;2023-04-25T06:22:27;99419.78;;;11.30;66.81
75401;BME280;63974;47.538;18.972;2023-04-25T06:25:31;99405.94;;;11.17;67.02
75401;BME280;63974;47.538;18.972;2023-04-25T06:28:35;99421.56;;;11.23;66.50
75401;BME280;63974;47.538;18.972;2023-04-25T06:31:38;99425.19;;;11.29;66.44
75401;BME280;63974;47.538;18.972;2023-04-25T06:34:41;99423.81;;;11.39;66.14
75401;BME280;63974;47.538;18.972;2023-04-25T06:37:44;99420.84;;;11.49;65.87
75401;BME280;63974;47.538;18.972;2023-04-25T06:40:47;99423.06;;;11.45;63.96
75401;BME280;63974;47.538;18.972;2023-04-25T06:43:50;99412.69;;;11.52;64.70
75401;BME280;63974;47.538;18.972;2023-04-25T06:47:07;99417.53;;;11.68;64.33
75401;BME280;63974;47.538;18.972;2023-04-25T06:50:10;99435.94;;;11.73;64.67
75401;BME280;63974;47.538;18.972;2023-04-25T06:53:14;99431.97;;;11.77;64.16
75401;BME280;63974;47.538;18.972;2023-04-25T06:56:20;99410.94;;;11.72;64.01
75401;BME280;63974;47.538;18.972;2023-04-25T06:59:33;99410.78;;;11.86;63.20
75401;BME280;63974;47.538;18.972;2023-04-25T07:02:37;99409.78;;;12.13;63.68
75401;BME280;63974;47.538;18.972;2023-04-25T07:05:41;99397.59;;;12.27;62.71
75401;BME280;63974;47.538;18.972;2023-04-25T07:08:44;99399.78;;;11.97;63.02
75401;BME280;63974;47.538;18.972;2023-04-25T07:11:47;99404.00;;;12.18;61.99
75401;BME280;63974;47.538;18.972;2023-04-25T07:14:50;99405.41;;;12.07;60.51
75401;BME280;63974;47.538;18.972;2023-04-25T07:17:53;99413.63;;;12.04;62.39
75401;BME280;63974;47.538;18.972;2023-04-25T07:20:56;99416.81;;;12.06;62.65
75401;BME280;63974;47.538;18.972;2023-04-25T07:23:59;99406.00;;;12.03;62.95
75401;BME280;63974;47.538;18.972;2023-04-25T07:27:07;99413.81;;;12.09;62.36
75401;BME280;63974;47.538;18.972;2023-04-25T07:30:30;99397.00;;;12.05;62.89
75401;BME280;63974;47.538;18.972;2023-04-25T07:33:33;99413.63;;;12.24;60.75
75401;BME280;63974;47.538;18.972;2023-04-25T07:36:37;99386.16;;;12.54;60.78
75401;BME280;63974;47.538;18.972;2023-04-25T07:39:41;99405.47;;;13.10;60.46
75401;BME280;63974;47.538;18.972;2023-04-25T07:42:45;99411.56;;;12.65;57.48
75401;BME280;63974;47.538;18.972;2023-04-25T07:45:52;99398.06;;;13.00;60.33
75401;BME280;63974;47.538;18.972;2023-04-25T07:48:56;99404.72;;;12.77;58.38
75401;BME280;63974;47.538;18.972;2023-04-25T07:51:59;99407.09;;;13.04;58.92
75401;BME280;63974;47.538;18.972;2023-04-25T07:55:03;99401.38;;;13.27;58.93
75401;BME280;63974;47.538;18.972;2023-04-25T07:58:16;99389.25;;;13.01;58.76
75401;BME280;63974;47.538;18.972;2023-04-25T08:01:27;99396.81;;;13.59;57.84
75401;BME280;63974;47.538;18.972;2023-04-25T08:04:34;99397.91;;;13.45;56.73
75401;BME280;63974;47.538;18.972;2023-04-25T08:07:41;99386.78;;;13.19;57.34
75401;BME280;63974;47.538;18.972;2023-04-25T08:10:44;99391.44;;;13.11;56.36
75401;BME280;63974;47.538;18.972;2023-04-25T08:13:48;99385.34;;;13.23;56.13
75401;BME280;63974;47.538;18.972;2023-04-25T08:16:51;99384.41;;;13.11;56.99
75401;BME280;63974;47.538;18.972;2023-04-25T08:19:55;99384.97;;;13.20;58.47
75401;BME280;63974;47.538;18.972;2023-04-25T08:23:02;99388.03;;;13.10;58.57
75401;BME280;63974;47.538;18.972;2023-04-25T08:26:17;99384.66;;;12.90;58.53
75401;BME280;63974;47.538;18.972;2023-04-25T08:29:24;99394.50;;;12.82;58.80
75401;BME280;63974;47.538;18.972;2023-04-25T08:32:29;99387.25;;;13.10;57.37
75401;BME280;63974;47.538;18.972;2023-04-25T08:35:53;99394.56;;;13.69;56.31
75401;BME280;63974;47.538;18.972;2023-04-25T08:38:58;99395.78;;;13.91;57.33
75401;BME280;63974;47.538;18.972;2023-04-25T08:42:05;99421.13;;;13.53;54.14
75401;BME280;63974;47.538;18.972;2023-04-25T08:45:11;99393.28;;;13.47;55.81
75401;BME280;63974;47.538;18.972;2023-04-25T08:48:17;99399.06;;;13.49;56.74
75401;BME280;63974;47.538;18.972;2023-04-25T08:51:23;99409.38;;;13.32;56.14
75401;BME280;63974;47.538;18.972;2023-04-25T08:54:29;99382.88;;;13.41;56.18
75401;BME280;63974;47.538;18.972;2023-04-25T08:57:40;99394.59;;;13.63;55.98
75401;BME280;63974;47.538;18.972;2023-04-25T09:00:46;99404.00;;;13.95;55.24
75401;BME280;63974;47.538;18.972;2023-04-25T09:03:51;99390.00;;;13.89;54.73
75401;BME280;63974;47.538;18.972;2023-04-25T09:06:54;99392.34;;;13.97;54.22
75401;BME280;63974;47.538;18.972;2023-04-25T09:09:57;99384.38;;;14.41;54.58
75401;BME280;63974;47.538;18.972;2023-04-25T09:13:10;99395.34;;;14.01;53.62
75401;BME280;63974;47.538;18.972;2023-04-25T09:17:00;99391.03;;;14.13;53.92
75401;BME280;63974;47.538;18.972;2023-04-25T09:20:41;99398.44;;;14.16;51.03
75401;BME280;63974;47.538;18.972;2023-04-25T09:24:02;99378.91;;;14.25;51.27
75401;BME280;63974;47.538;18.972;2023-04-25T09:27:17;99384.84;;;14.56;50.75
75401;BME280;63974;47.538;18.972;2023-04-25T09:30:29;99397.91;;;14.56;50.26
75401;BME280;63974;47.538;18.972;2023-04-25T09:34:17;99390.00;;;14.63;47.72
75401;BME280;63974;47.538;18.972;2023-04-25T09:37:29;99371.56;;;14.94;50.55
75401;BME280;63974;47.538;18.972;2023-04-25T09:40:51;99402.13;;;14.75;49.73
75401;BME280;63974;47.538;18.972;2023-04-25T09:44:02;99382.81;;;14.58;49.80
75401;BME280;63974;47.538;18.972;2023-04-25T09:47:14;99396.81;;;15.18;47.97
75401;BME280;63974;47.538;18.972;2023-04-25T09:50:20;99391.16;;;15.39;46.17
75401;BME280;63974;47.538;18.972;2023-04-25T09:53:38;99400.03;;;15.38;48.07
75401;BME280;63974;47.538;18.972;2023-04-25T09:57:21;99395.81;;;14.83;48.07
75401;BME280;63974;47.538;18.972;2023-04-25T10:00:25;99393.44;;;14.99;49.25
75401;BME280;63974;47.538;18.972;2023-04-25T10:03:33;99395.16;;;15.41;49.08
75401;BME280;63974;47.538;18.972;2023-04-25T10:07:07;99404.13;;;15.34;45.44
75401;BME280;63974;47.538;18.972;2023-04-25T10:10:12;99414.78;;;14.96;46.83
75401;BME280;63974;47.538;18.972;2023-04-25T10:13:15;99393.56;;;15.40;46.58
75401;BME280;63974;47.538;18.972;2023-04-25T10:16:19;99405.09;;;15.51;46.15
75401;BME280;63974;47.538;18.972;2023-04-25T10:19:23;99401.72;;;15.32;46.40
75401;BME280;63974;47.538;18.972;2023-04-25T10:22:32;99402.03;;;15.54;44.63
75401;BME280;63974;47.538;18.972;2023-04-25T10:25:37;99400.53;;;15.28;47.18
75401;BME280;63974;47.538;18.972;2023-04-25T10:29:00;99400.44;;;15.53;45.06
75401;BME280;63974;47.538;18.972;2023-04-25T10:32:09;99391.41;;;16.30;45.13
75401;BME280;63974;47.538;18.972;2023-04-25T10:35:33;99393.00;;;16.08;43.69
75401;BME280;63974;47.538;18.972;2023-04-25T10:39:09;99393.31;;;15.60;43.82
75401;BME280;63974;47.538;18.972;2023-04-25T10:42:13;99381.38;;;15.75;46.14
75401;BME280;63974;47.538;18.972;2023-04-25T10:45:16;99392.50;;;15.59;44.37
75401;BME280;63974;47.538;18.972;2023-04-25T10:48:30;99384.25;;;16.26;41.40
75401;BME280;63974;47.538;18.972;2023-04-25T10:51:34;99377.78;;;15.87;44.34
75401;BME280;63974;47.538;18.972;2023-04-25T10:54:57;99402.22;;;14.87;47.67
75401;BME280;63974;47.538;18.972;2023-04-25T10:58:00;99389.97;;;15.53;45.69
75401;BME280;63974;47.538;18.972;2023-04-25T11:01:03;99411.53;;;15.37;44.85
75401;BME280;63974;47.538;18.972;2023-04-25T11:04:22;99386.97;;;15.38;44.17
75401;BME280;63974;47.538;18.972;2023-04-25T11:07:34;99393.56;;;15.70;44.80
75401;BME280;63974;47.538;18.972;2023-04-25T11:10:40;99370.13;;;15.74;44.82
75401;BME280;63974;47.538;18.972;2023-04-25T11:13:43;99377.41;;;16.25;42.04
75401;BME280;63974;47.538;18.972;2023-04-25T11:16:46;99379.03;;;15.73;42.71
75401;BME280;63974;47.538;18.972;2023-04-25T11:19:49;99380.31;;;15.53;45.25
75401;BME280;63974;47.538;18.972;2023-04-25T11:22:52;99381.72;;;15.38;44.36
75401;BME280;63974;47.538;18.972;2023-04-25T11:25:55;99375.25;;;15.70;43.33
75401;BME280;63974;47.538;18.972;2023-04-25T11:28:59;99370.72;;;15.76;44.02
75401;BME280;63974;47.538;18.972;2023-04-25T11:32:03;99368.09;;;16.52;43.54
75401;BME280;63974;47.538;18.972;2023-04-25T11:35:06;99383.22;;;16.61;41.64
75401;BME280;63974;47.538;18.972;2023-04-25T11:38:10;99376.59;;;16.13;41.94
75401;BME280;63974;47.538;18.972;2023-04-25T11:41:13;99375.38;;;16.38;41.29
75401;BME280;63974;47.538;18.972;2023-04-25T11:44:17;99388.38;;;15.92;42.32
75401;BME280;63974;47.538;18.972;2023-04-25T11:47:19;99360.34;;;15.70;43.67
75401;BME280;63974;47.538;18.972;2023-04-25T11:50:22;99374.88;;;15.19;43.72
75401;BME280;63974;47.538;18.972;2023-04-25T11:53:25;99365.47;;;15.65;44.13
75401;BME280;63974;47.538;18.972;2023-04-25T11:56:30;99378.78;;;16.50;42.08
75401;BME280;63974;47.538;18.972;2023-04-25T11:59:33;99354.50;;;16.32;41.26
75401;BME280;63974;47.538;18.972;2023-04-25T12:02:37;99356.47;;;16.36;40.68
75401;BME280;63974;47.538;18.972;2023-04-25T12:05:40;99352.06;;;15.96;42.55
75401;BME280;63974;47.538;18.972;2023-04-25T12:09:02;99363.22;;;15.80;44.76
75401;BME280;63974;47.538;18.972;2023-04-25T12:12:09;99356.69;;;16.12;43.30
75401;BME280;63974;47.538;18.972;2023-04-25T12:15:17;99351.31;;;16.18;39.75
75401;BME280;63974;47.538;18.972;2023-04-25T12:18:25;99356.94;;;15.81;41.00
75401;BME280;63974;47.538;18.972;2023-04-25T12:21:32;99353.22;;;15.88;41.08
75401;BME280;63974;47.538;18.972;2023-04-25T12:24:40;99352.44;;;15.88;40.50
75401;BME280;63974;47.538;18.972;2023-04-25T12:27:42;99340.63;;;15.68;42.94
75401;BME280;63974;47.538;18.972;2023-04-25T12:31:04;99353.66;;;15.85;43.33
75401;BME280;63974;47.538;18.972;2023-04-25T12:34:07;99339.56;;;15.86;42.23
75401;BME280;63974;47.538;18.972;2023-04-25T12:37:10;99322.38;;;16.13;40.46
75401;BME280;63974;47.538;18.972;2023-04-25T12:40:13;99337.53;;;16.00;41.26
75401;BME280;63974;47.538;18.972;2023-04-25T12:43:16;99328.88;;;16.22;39.81
75401;BME280;63974;47.538;18.972;2023-04-25T12:46:20;99326.91;;;16.75;38.72
75401;BME280;63974;47.538;18.972;2023-04-25T12:49:23;99315.53;;;17.65;37.15
75401;BME280;63974;47.538;18.972;2023-04-25T12:52:26;99320.91;;;17.03;39.17
75401;BME280;63974;47.538;18.972;2023-04-25T12:55:29;99315.44;;;17.32;39.61
75401;BME280;63974;47.538;18.972;2023-04-25T12:58:32;99316.94;;;16.61;38.91
75401;BME280;63974;47.538;18.972;2023-04-25T13:01:36;99303.69;;;16.10;40.81
75401;BME280;63974;47.538;18.972;2023-04-25T13:04:39;99300.25;;;15.64;41.30
75401;BME280;63974;47.538;18.972;2023-04-25T13:07:42;99319.13;;;15.66;40.77
75401;BME280;63974;47.538;18.972;2023-04-25T13:10:44;99308.03;;;15.41;41.08
75401;BME280;63974;47.538;18.972;2023-04-25T13:13:47;99307.47;;;15.91;40.96
75401;BME280;63974;47.538;18.972;2023-04-25T13:16:50;99300.78;;;16.41;38.36
75401;BME280;63974;47.538;18.972;2023-04-25T13:19:53;99291.78;;;17.44;37.03
75401;BME280;63974;47.538;18.972;2023-04-25T13:22:56;99293.81;;;16.46;37.13
75401;BME280;63974;47.538;18.972;2023-04-25T13:26:02;99298.59;;;16.49;37.05
75401;BME280;63974;47.538;18.972;2023-04-25T13:29:05;99292.09;;;16.40;36.61
75401;BME280;63974;47.538;18.972;2023-04-25T13:32:09;99299.88;;;16.86;37.57
75401;BME280;63974;47.538;18.972;2023-04-25T13:35:13;99295.75;;;16.28;40.58
75401;BME280;63974;47.538;18.972;2023-04-25T13:38:16;99296.63;;;15.76;41.64
75401;BME280;63974;47.538;18.972;2023-04-25T13:41:19;99291.63;;;16.09;41.29
75401;BME280;63974;47.538;18.972;2023-04-25T13:44:23;99291.75;;;15.91;40.66
75401;BME280;63974;47.538;18.972;2023-04-25T13:47:26;99281.06;;;16.04;39.47
75401;BME280;63974;47.538;18.972;2023-04-25T13:50:29;99285.44;;;17.00;38.05
75401;BME280;63974;47.538;18.972;2023-04-25T13:53:32;99280.16;;;16.44;38.72
75401;BME280;63974;47.538;18.972;2023-04-25T13:56:35;99280.59;;;16.41;41.28
75401;BME280;63974;47.538;18.972;2023-04-25T13:59:39;99283.28;;;16.58;40.32
75401;BME280;63974;47.538;18.972;2023-04-25T14:02:43;99285.50;;;16.38;41.00
75401;BME280;63974;47.538;18.972;2023-04-25T14:05:46;99279.81;;;16.06;40.44
75401;BME280;63974;47.538;18.972;2023-04-25T14:08:49;99278.88;;;16.12;42.00
75401;BME280;63974;47.538;18.972;2023-04-25T14:11:53;99266.91;;;17.46;37.76
75401;BME280;63974;47.538;18.972;2023-04-25T14:14:56;99267.00;;;18.22;36.07
75401;BME280;63974;47.538;18.972;2023-04-25T14:17:59;99268.97;;;18.48;35.66
75401;BME280;63974;47.538;18.972;2023-04-25T14:21:02;99276.47;;;16.96;36.28
75401;BME280;63974;47.538;18.972;2023-04-25T14:24:05;99266.94;;;16.28;38.94
75401;BME280;63974;47.538;18.972;2023-04-25T14:27:08;99266.06;;;17.01;37.35
75401;BME280;63974;47.538;18.972;2023-04-25T14:30:12;99271.50;;;17.39;36.49
75401;BME280;63974;47.538;18.972;2023-04-25T14:33:15;99267.31;;;18.25;33.57
75401;BME280;63974;47.538;18.972;2023-04-25T14:36:17;99252.59;;;18.24;35.07
75401;BME280;63974;47.538;18.972;2023-04-25T14:39:20;99251.06;;;17.74;34.42
75401;BME280;63974;47.538;18.972;2023-04-25T14:42:24;99269.81;;;17.05;35.85
75401;BME280;63974;47.538;18.972;2023-04-25T14:45:26;99262.81;;;16.32;37.97
75401;BME280;63974;47.538;18.972;2023-04-25T14:48:29;99249.50;;;16.22;38.51
75401;BME280;63974;47.538;18.972;2023-04-25T14:51:32;99266.34;;;16.14;39.81
75401;BME280;63974;47.538;18.972;2023-04-25T14:54:35;99261.78;;;15.87;39.96
75401;BME280;63974;47.538;18.972;2023-04-25T14:57:38;99265.09;;;15.71;40.74
75401;BME280;63974;47.538;18.972;2023-04-25T15:00:42;99257.91;;;15.67;39.67
75401;BME280;63974;47.538;18.972;2023-04-25T15:03:46;99261.81;;;16.10;39.75
75401;BME280;63974;47.538;18.972;2023-04-25T15:06:51;99264.78;;;17.32;37.30
75401;BME280;63974;47.538;18.972;2023-04-25T15:09:54;99262.84;;;17.55;37.33
75401;BME280;63974;47.538;18.972;2023-04-25T15:12:59;99259.53;;;17.32;35.87
75401;BME280;63974;47.538;18.972;2023-04-25T15:16:02;99254.97;;;16.20;35.57
75401;BME280;63974;47.538;18.972;2023-04-25T15:19:05;99252.00;;;16.17;36.17
75401;BME280;63974;47.538;18.972;2023-04-25T15:22:09;99257.16;;;16.12;39.23
75401;BME280;63974;47.538;18.972;2023-04-25T15:25:12;99261.94;;;16.15;39.07
75401;BME280;63974;47.538;18.972;2023-04-25T15:28:15;99250.09;;;15.78;38.83
75401;BME280;63974;47.538;18.972;2023-04-25T15:31:18;99247.00;;;15.92;39.19
75401;BME280;63974;47.538;18.972;2023-04-25T15:34:21;99251.47;;;15.92;39.90
75401;BME280;63974;47.538;18.972;2023-04-25T15:37:24;99254.66;;;15.82;40.70
75401;BME280;63974;47.538;18.972;2023-04-25T15:40:27;99255.88;;;15.68;39.82
75401;BME280;63974;47.538;18.972;2023-04-25T15:43:30;99252.84;;;15.94;40.76
75401;BME280;63974;47.538;18.972;2023-04-25T15:46:33;99250.31;;;15.88;41.15
75401;BME280;63974;47.538;18.972;2023-04-25T15:49:36;99252.16;;;15.76;42.10
75401;BME280;63974;47.538;18.972;2023-04-25T15:52:39;99250.28;;;15.54;43.90
75401;BME280;63974;47.538;18.972;2023-04-25T15:55:43;99252.44;;;15.45;44.19
75401;BME280;63974;47.538;18.972;2023-04-25T15:58:46;99265.53;;;15.57;44.35
75401;BME280;63974;47.538;18.972;2023-04-25T16:01:49;99265.19;;;15.53;45.90
75401;BME280;63974;47.538;18.972;2023-04-25T16:04:52;99257.06;;;15.32;45.75
75401;BME280;63974;47.538;18.972;2023-04-25T16:07:55;99264.75;;;15.27;46.41
75401;BME280;63974;47.538;18.972;2023-04-25T16:10:59;99257.13;;;15.25;46.44
75401;BME280;63974;47.538;18.972;2023-04-25T16:14:02;99266.13;;;15.29;45.83
75401;BME280;63974;47.538;18.972;2023-04-25T16:17:05;99261.50;;;15.31;46.57
75401;BME280;63974;47.538;18.972;2023-04-25T16:20:09;99261.50;;;15.13;47.24